createdAt,value
2023-04-09T00:02:02.986Z,12.20
2023-04-09T00:04:29.793Z,12.93
2023-04-09T00:06:56.566Z,13.93
2023-04-09T00:09:23.296Z,12.45
2023-04-09T00:11:49.986Z,12.90
2023-04-09T00:14:16.676Z,13.73
2023-04-09T00:16:43.412Z,13.07
2023-04-09T00:19:11.620Z,13.05
2023-04-09T00:21:38.631Z,12.07
2023-04-09T00:24:05.676Z,11.38
2023-04-09T00:26:32.448Z,11.57
2023-04-09T00:28:59.236Z,12.98
2023-04-09T00:31:25.964Z,11.60
2023-04-09T00:33:52.690Z,11.23
2023-04-09T00:36:19.635Z,12.40
2023-04-09T00:38:47.917Z,12.35
2023-04-09T00:41:14.623Z,12.00
2023-04-09T00:43:41.399Z,11.65
2023-04-09T00:46:08.234Z,12.23
2023-04-09T00:48:35.008Z,12.60
2023-04-09T00:51:02.092Z,11.63
2023-04-09T00:53:28.977Z,13.25
2023-04-09T00:55:55.778Z,12.10
2023-04-09T00:58:22.558Z,11.98
2023-04-09T01:00:49.283Z,11.93
2023-04-09T01:03:16.462Z,11.85
2023-04-09T01:06:14.255Z,11.45
2023-04-09T01:08:56.173Z,12.00
2023-04-09T01:11:36.078Z,12.05
2023-04-09T01:14:22.238Z,12.15
2023-04-09T01:16:56.007Z,11.38
2023-04-09T01:19:44.330Z,11.25
2023-04-09T01:22:29.078Z,12.05
2023-04-09T01:25:17.657Z,10.82
2023-04-09T01:28:07.614Z,11.02
2023-04-09T01:30:34.870Z,11.40
2023-04-09T01:33:03.526Z,11.95
2023-04-09T01:35:30.657Z,12.38
2023-04-09T01:37:58.225Z,11.57
2023-04-09T01:40:25.311Z,11.65
2023-04-09T01:42:53.543Z,12.25
2023-04-09T01:45:21.155Z,11.52
2023-04-09T01:47:48.087Z,11.95
2023-04-09T01:50:15.344Z,11.77
2023-04-09T01:52:42.374Z,12.02
2023-04-09T01:55:09.285Z,12.38
2023-04-09T01:57:36.274Z,12.25
2023-04-09T02:00:03.814Z,12.20
2023-04-09T02:02:46.488Z,11.88
2023-04-09T02:05:17.164Z,12.73
2023-04-09T02:07:47.406Z,12.25
2023-04-09T02:10:17.233Z,12.50
2023-04-09T02:12:49.952Z,12.85
2023-04-09T02:15:17.901Z,12.38
2023-04-09T02:17:44.695Z,12.82
2023-04-09T02:20:12.153Z,12.00
2023-04-09T02:22:39.343Z,12.70
2023-04-09T02:25:06.946Z,12.52
2023-04-09T02:27:33.748Z,13.13
2023-04-09T02:30:00.571Z,12.00
2023-04-09T02:32:27.217Z,11.85
2023-04-09T02:34:54.004Z,12.98
2023-04-09T02:37:20.798Z,11.65
2023-04-09T02:39:47.550Z,13.25
2023-04-09T02:42:14.466Z,11.75
2023-04-09T02:44:41.249Z,12.35
2023-04-09T02:47:07.966Z,12.40
2023-04-09T02:49:34.757Z,10.93
2023-04-09T02:52:01.520Z,12.20
2023-04-09T02:54:28.312Z,12.10
2023-04-09T02:56:55.093Z,12.48
2023-04-09T02:59:21.782Z,12.30
2023-04-09T03:01:48.583Z,12.77
2023-04-09T03:04:15.821Z,12.50
2023-04-09T03:06:42.646Z,12.05
2023-04-09T03:09:09.331Z,12.05
2023-04-09T03:11:36.246Z,12.48
2023-04-09T03:14:02.924Z,12.73
2023-04-09T03:16:29.674Z,13.00
2023-04-09T03:18:56.539Z,13.40
2023-04-09T03:21:23.297Z,14.30
2023-04-09T03:23:50.105Z,13.95
2023-04-09T03:26:16.834Z,13.95
2023-04-09T03:28:43.537Z,13.07
2023-04-09T03:31:10.355Z,14.43
2023-04-09T03:33:37.149Z,14.27
2023-04-09T03:36:04.140Z,13.32
2023-04-09T03:38:31.096Z,14.50
2023-04-09T03:40:57.872Z,13.30
2023-04-09T03:43:24.606Z,13.98
2023-04-09T03:45:51.391Z,13.55
2023-04-09T03:48:18.314Z,14.50
2023-04-09T03:50:44.951Z,15.13
2023-04-09T03:53:11.617Z,14.80
2023-04-09T03:55:38.509Z,14.45
2023-04-09T03:58:05.322Z,14.45
2023-04-09T04:00:32.081Z,12.93
2023-04-09T04:02:59.149Z,14.45
2023-04-09T04:05:26.338Z,15.02
2023-04-09T04:07:53.402Z,14.77
2023-04-09T04:10:20.274Z,14.30
2023-04-09T04:12:47.134Z,14.05
2023-04-09T04:15:14.036Z,14.80
2023-04-09T04:17:40.931Z,15.20
2023-04-09T04:20:08.380Z,14.60
2023-04-09T04:22:35.749Z,14.48
2023-04-09T04:25:04.342Z,14.15
2023-04-09T04:27:31.073Z,13.85
2023-04-09T04:29:59.936Z,14.20
2023-04-09T04:32:26.987Z,15.10
2023-04-09T04:34:54.076Z,14.82
2023-04-09T04:37:21.337Z,13.50
2023-04-09T04:39:48.030Z,12.70
2023-04-09T04:42:14.806Z,14.10
2023-04-09T04:44:41.438Z,12.65
2023-04-09T04:47:08.152Z,13.45
2023-04-09T04:49:34.803Z,13.80
2023-04-09T04:52:01.551Z,14.18
2023-04-09T04:54:28.341Z,14.40
2023-04-09T04:56:56.171Z,13.93
2023-04-09T04:59:22.983Z,13.68
2023-04-09T05:01:49.997Z,13.23
2023-04-09T05:04:16.685Z,13.73
2023-04-09T05:06:43.362Z,13.90
2023-04-09T05:09:10.081Z,12.98
2023-04-09T05:11:36.849Z,13.55
2023-04-09T05:14:04.713Z,12.80
2023-04-09T05:16:32.115Z,13.13
2023-04-09T05:18:59.978Z,12.63
2023-04-09T05:21:27.585Z,11.98
2023-04-09T05:23:54.763Z,12.63
2023-04-09T05:26:21.710Z,13.77
2023-04-09T05:28:48.694Z,12.13
2023-04-09T05:31:15.909Z,12.50
2023-04-09T05:33:43.170Z,13.13
2023-04-09T05:36:18.508Z,12.32
2023-04-09T05:38:46.634Z,13.40
2023-04-09T05:41:13.540Z,13.18
2023-04-09T05:43:40.993Z,12.27
2023-04-09T05:46:07.913Z,12.68
2023-04-09T05:48:37.424Z,12.50
2023-04-09T05:51:04.216Z,12.98
2023-04-09T05:53:32.108Z,12.85
2023-04-09T05:55:58.963Z,12.90
2023-04-09T05:58:25.982Z,13.48
2023-04-09T06:00:52.689Z,12.15
2023-04-09T06:03:19.795Z,13.38
2023-04-09T06:05:46.780Z,13.48
2023-04-09T06:08:14.150Z,13.52
2023-04-09T06:10:41.522Z,13.00
2023-04-09T06:13:09.470Z,13.30
2023-04-09T06:15:38.729Z,12.63
2023-04-09T06:18:05.521Z,12.35
2023-04-09T06:20:32.480Z,13.40
2023-04-09T06:22:59.214Z,13.45
2023-04-09T06:25:26.062Z,12.60
2023-04-09T06:27:52.834Z,12.68
2023-04-09T06:30:19.586Z,12.40
2023-04-09T06:32:54.464Z,13.73
2023-04-09T06:35:22.412Z,12.35
2023-04-09T06:37:49.156Z,13.75
2023-04-09T06:40:16.165Z,11.82
2023-04-09T06:42:43.170Z,11.95
2023-04-09T06:45:10.539Z,11.85
2023-04-09T06:47:37.346Z,12.10
2023-04-09T06:50:04.914Z,11.43
2023-04-09T06:52:31.719Z,11.27
2023-04-09T06:54:58.440Z,11.38
2023-04-09T06:57:26.279Z,11.60
2023-04-09T06:59:53.010Z,11.70
2023-04-09T07:02:19.921Z,12.57
2023-04-09T07:04:47.862Z,12.40
2023-04-09T07:07:14.669Z,11.93
2023-04-09T07:09:42.056Z,12.50
2023-04-09T07:12:08.758Z,12.02
2023-04-09T07:14:35.516Z,13.00
2023-04-09T07:17:02.245Z,12.32
2023-04-09T07:19:29.092Z,13.02
2023-04-09T07:21:55.979Z,13.38
2023-04-09T07:24:22.789Z,12.63
2023-04-09T07:26:51.989Z,12.10
2023-04-09T07:29:20.751Z,12.73
2023-04-09T07:31:47.685Z,12.70
2023-04-09T07:34:14.872Z,13.30
2023-04-09T07:36:42.925Z,13.32
2023-04-09T07:39:09.765Z,13.82
2023-04-09T07:41:37.518Z,12.68
2023-04-09T07:44:06.121Z,11.93
2023-04-09T07:46:32.920Z,12.43
2023-04-09T07:48:59.955Z,13.18
2023-04-09T07:51:27.757Z,12.32
2023-04-09T07:53:54.545Z,12.18
2023-04-09T07:56:21.302Z,12.75
2023-04-09T07:58:49.248Z,12.65
2023-04-09T08:01:16.312Z,11.45
2023-04-09T08:03:43.535Z,10.68
2023-04-09T08:06:10.357Z,11.10
2023-04-09T08:08:37.522Z,10.88
2023-04-09T08:11:04.505Z,12.75
2023-04-09T08:13:31.171Z,11.45
2023-04-09T08:16:01.648Z,10.95
2023-04-09T08:18:29.193Z,10.48
2023-04-09T08:20:57.037Z,11.52
2023-04-09T08:23:23.744Z,10.35
2023-04-09T08:25:50.544Z,10.48
2023-04-09T08:28:17.265Z,10.27
2023-04-09T08:30:44.655Z,10.57
2023-04-09T08:33:11.518Z,10.82
2023-04-09T08:35:40.360Z,10.13
2023-04-09T08:38:07.206Z,10.20
2023-04-09T08:40:37.812Z,11.13
2023-04-09T08:43:06.952Z,9.82
2023-04-09T08:45:33.804Z,10.45
2023-04-09T08:48:03.885Z,10.85
2023-04-09T08:50:32.366Z,11.95
2023-04-09T08:53:02.177Z,9.02
2023-04-09T08:55:29.279Z,9.05
2023-04-09T08:57:56.411Z,8.63
2023-04-09T09:00:23.269Z,10.20
2023-04-09T09:03:11.731Z,8.75
2023-04-09T09:05:43.517Z,8.85
2023-04-09T09:08:22.462Z,9.00
2023-04-09T09:10:49.221Z,8.77
2023-04-09T09:13:26.581Z,8.85
2023-04-09T09:15:56.275Z,9.75
2023-04-09T09:18:42.896Z,9.95
2023-04-09T09:21:14.759Z,9.45
2023-04-09T09:23:42.699Z,9.48
2023-04-09T09:26:14.427Z,8.32
2023-04-09T09:28:41.801Z,9.18
2023-04-09T09:31:12.844Z,8.77
2023-04-09T09:33:40.553Z,7.80
2023-04-09T09:36:09.510Z,8.32
2023-04-09T09:38:54.326Z,9.82
2023-04-09T09:41:22.204Z,8.60
2023-04-09T09:43:49.170Z,9.10
2023-04-09T09:46:16.783Z,8.70
2023-04-09T09:48:46.273Z,9.73
2023-04-09T09:51:14.105Z,8.80
2023-04-09T09:53:43.934Z,7.82
2023-04-09T09:56:19.073Z,7.45
2023-04-09T09:58:53.214Z,8.65
2023-04-09T10:01:23.553Z,9.07
2023-04-09T10:03:51.799Z,9.40
2023-04-09T10:06:18.979Z,8.93
2023-04-09T10:08:48.889Z,9.68
2023-04-09T10:11:16.201Z,9.23
2023-04-09T10:13:51.205Z,9.32
2023-04-09T10:16:19.187Z,8.45
2023-04-09T10:18:46.061Z,9.02
2023-04-09T10:21:37.815Z,9.15
2023-04-09T10:24:07.830Z,8.48
2023-04-09T10:26:35.547Z,7.47
2023-04-09T10:29:08.043Z,7.85
2023-04-09T10:32:06.970Z,7.47
2023-04-09T10:34:40.016Z,7.57
2023-04-09T10:37:16.997Z,8.40
2023-04-09T10:39:48.997Z,7.50
2023-04-09T10:42:19.242Z,7.97
2023-04-09T10:44:46.072Z,8.52
2023-04-09T10:47:31.184Z,7.78
2023-04-09T10:49:57.903Z,8.03
2023-04-09T10:52:30.293Z,7.05
2023-04-09T10:54:57.274Z,8.45
2023-04-09T10:57:24.580Z,7.97
2023-04-09T10:59:55.373Z,7.63
2023-04-09T11:02:34.427Z,7.90
2023-04-09T11:05:33.031Z,7.90
2023-04-09T11:08:06.115Z,7.78
2023-04-09T11:10:37.423Z,8.40
2023-04-09T11:13:04.682Z,8.77
2023-04-09T11:15:34.431Z,8.30
2023-04-09T11:18:02.294Z,8.00
2023-04-09T11:20:31.122Z,7.47
2023-04-09T11:22:59.372Z,7.35
2023-04-09T11:25:27.730Z,7.03
2023-04-09T11:27:54.998Z,8.75
2023-04-09T11:30:22.011Z,7.05
2023-04-09T11:32:49.782Z,7.40
2023-04-09T11:35:22.212Z,7.25
2023-04-09T11:37:50.266Z,7.03
2023-04-09T11:40:23.500Z,6.90
2023-04-09T11:42:52.277Z,6.78
2023-04-09T11:45:21.094Z,6.45
2023-04-09T11:47:48.733Z,7.57
2023-04-09T11:50:16.580Z,7.10
2023-04-09T11:52:45.425Z,7.82
2023-04-09T11:55:13.092Z,6.60
2023-04-09T11:57:47.200Z,7.00
2023-04-09T12:00:15.563Z,5.88
2023-04-09T12:02:47.683Z,5.43
2023-04-09T12:05:23.374Z,5.97
2023-04-09T12:10:31.117Z,5.25
2023-04-09T12:13:06.665Z,5.40
2023-04-09T12:15:37.009Z,4.90
2023-04-09T12:18:04.407Z,5.28
2023-04-09T12:20:35.852Z,5.38
2023-04-09T12:23:04.580Z,4.90
2023-04-09T12:25:36.638Z,4.93
2023-04-09T12:28:04.369Z,5.00
2023-04-09T12:30:31.572Z,5.68
2023-04-09T12:32:58.744Z,6.22
2023-04-09T12:35:25.672Z,5.60
2023-04-09T12:37:52.713Z,5.20
2023-04-09T12:40:20.400Z,5.85
2023-04-09T12:42:48.216Z,5.57
2023-04-09T12:45:17.514Z,5.00
2023-04-09T12:47:44.976Z,4.78
2023-04-09T12:50:13.007Z,3.97
2023-04-09T12:52:39.854Z,3.72
2023-04-09T12:55:07.644Z,4.75
2023-04-09T12:57:34.877Z,4.50
2023-04-09T13:00:01.575Z,3.92
2023-04-09T13:02:28.502Z,4.25
2023-04-09T13:04:55.430Z,4.90
2023-04-09T13:07:22.864Z,4.35
2023-04-09T13:09:50.463Z,3.78
2023-04-09T13:12:17.798Z,4.78
2023-04-09T13:14:46.634Z,5.22
2023-04-09T13:17:13.776Z,4.28
2023-04-09T13:19:42.717Z,4.43
2023-04-09T13:22:10.670Z,4.70
2023-04-09T13:24:38.337Z,4.50
2023-04-09T13:27:06.192Z,4.85
2023-04-09T13:29:32.978Z,4.63
2023-04-09T13:32:01.783Z,4.18
2023-04-09T13:34:28.694Z,4.70
2023-04-09T13:36:55.373Z,4.68
2023-04-09T13:39:22.031Z,5.10
2023-04-09T13:41:48.846Z,3.80
2023-04-09T13:44:15.692Z,4.47
2023-04-09T13:46:42.459Z,4.80
2023-04-09T13:49:09.238Z,5.00
2023-04-09T13:51:36.059Z,4.03
2023-04-09T13:54:05.308Z,4.85
2023-04-09T13:56:32.818Z,3.72
2023-04-09T13:58:59.934Z,4.68
2023-04-09T14:01:27.983Z,4.13
2023-04-09T14:03:55.114Z,4.35
2023-04-09T14:06:22.304Z,4.30
2023-04-09T14:08:48.999Z,4.75
2023-04-09T14:11:16.883Z,4.03
2023-04-09T14:13:43.689Z,4.32
2023-04-09T14:16:11.097Z,4.90
2023-04-09T14:18:39.371Z,4.18
2023-04-09T14:21:08.713Z,4.30
2023-04-09T14:23:37.033Z,4.38
2023-04-09T14:26:04.947Z,4.88
2023-04-09T14:28:32.385Z,4.93
2023-04-09T14:31:00.747Z,4.63
2023-04-09T14:33:27.985Z,4.82
2023-04-09T14:35:55.160Z,4.72
2023-04-09T14:38:23.971Z,4.57
2023-04-09T14:40:51.444Z,3.78
2023-04-09T14:43:18.562Z,3.78
2023-04-09T14:45:45.288Z,4.65
2023-04-09T14:48:12.084Z,4.07
2023-04-09T14:50:38.907Z,4.15
2023-04-09T14:53:05.800Z,4.75
2023-04-09T14:55:32.554Z,4.35
2023-04-09T14:57:59.894Z,4.50
2023-04-09T15:00:26.699Z,4.40
2023-04-09T15:02:53.645Z,4.03
2023-04-09T15:05:20.780Z,5.13
2023-04-09T15:07:47.540Z,4.05
2023-04-09T15:10:14.989Z,4.43
2023-04-09T15:12:41.746Z,5.30
2023-04-09T15:15:09.470Z,5.57
2023-04-09T15:17:36.763Z,4.57
2023-04-09T15:20:04.198Z,4.43
2023-04-09T15:22:31.120Z,4.20
2023-04-09T15:24:57.891Z,5.22
2023-04-09T15:27:24.918Z,4.10
2023-04-09T15:29:52.060Z,3.75
2023-04-09T15:32:19.259Z,3.30
2023-04-09T15:34:46.166Z,4.05
2023-04-09T15:37:12.924Z,3.55
2023-04-09T15:39:39.702Z,3.80
2023-04-09T15:42:08.604Z,3.83
2023-04-09T15:44:36.360Z,3.85
2023-04-09T15:47:03.167Z,3.92
2023-04-09T15:49:30.158Z,3.40
2023-04-09T15:51:56.920Z,3.83
2023-04-09T15:54:23.693Z,3.63
2023-04-09T15:56:50.482Z,3.92
2023-04-09T15:59:18.843Z,4.68
2023-04-09T16:01:45.952Z,4.22
2023-04-09T16:04:12.891Z,4.18
2023-04-09T16:06:39.788Z,4.82
2023-04-09T16:09:06.527Z,4.32
2023-04-09T16:11:35.894Z,4.65
2023-04-09T16:14:02.687Z,4.95
2023-04-09T16:16:29.561Z,5.18
2023-04-09T16:18:56.372Z,4.85
2023-04-09T16:21:23.188Z,4.55
2023-04-09T16:23:49.853Z,4.00
2023-04-09T16:26:16.530Z,3.83
2023-04-09T16:28:43.242Z,4.28
2023-04-09T16:31:09.929Z,3.80
2023-04-09T16:33:36.722Z,4.45
2023-04-09T16:36:03.571Z,4.40
2023-04-09T16:38:31.198Z,4.28
2023-04-09T16:40:58.223Z,4.18
2023-04-09T16:43:25.366Z,4.43
2023-04-09T16:45:52.319Z,4.50
2023-04-09T16:48:19.272Z,4.63
2023-04-09T16:50:45.980Z,4.63
2023-04-09T16:53:12.908Z,5.05
2023-04-09T16:55:39.726Z,4.43
2023-04-09T16:58:06.696Z,4.40
2023-04-09T17:00:33.705Z,4.70
2023-04-09T17:03:00.880Z,4.40
2023-04-09T17:05:27.651Z,4.00
2023-04-09T17:07:54.421Z,4.30
2023-04-09T17:10:21.331Z,4.10
2023-04-09T17:12:48.418Z,3.92
2023-04-09T17:15:15.235Z,4.35
2023-04-09T17:17:43.691Z,4.50
2023-04-09T17:20:11.323Z,4.13
2023-04-09T17:22:39.233Z,4.07
2023-04-09T17:25:06.571Z,3.97
2023-04-09T17:27:33.445Z,4.55
2023-04-09T17:30:00.224Z,4.10
2023-04-09T17:32:27.726Z,4.10
2023-04-09T17:34:54.534Z,3.97
2023-04-09T17:37:21.654Z,4.13
2023-04-09T17:39:48.721Z,4.18
2023-04-09T17:42:15.502Z,4.30
2023-04-09T17:44:43.863Z,3.85
2023-04-09T17:47:12.506Z,3.90
2023-04-09T17:49:39.829Z,3.90
2023-04-09T17:52:06.589Z,4.70
2023-04-09T17:54:38.188Z,3.55
2023-04-09T17:57:07.082Z,3.72
2023-04-09T17:59:34.677Z,3.90
2023-04-09T18:02:02.276Z,3.80
2023-04-09T18:04:29.476Z,3.42
2023-04-09T18:06:56.674Z,3.90
2023-04-09T18:09:23.372Z,3.97
2023-04-09T18:11:54.862Z,3.80
2023-04-09T18:14:22.004Z,3.72
2023-04-09T18:16:49.101Z,3.95
2023-04-09T18:19:15.963Z,3.95
2023-04-09T18:21:42.641Z,3.85
2023-04-09T18:24:09.472Z,4.10
2023-04-09T18:26:36.732Z,4.35
2023-04-09T18:29:03.569Z,4.15
2023-04-09T18:31:30.585Z,4.35
2023-04-09T18:33:57.355Z,4.30
2023-04-09T18:36:24.272Z,5.00
2023-04-09T18:38:52.020Z,4.38
2023-04-09T18:41:26.629Z,4.80
2023-04-09T18:43:54.232Z,4.60
2023-04-09T18:46:20.963Z,4.65
2023-04-09T18:48:47.809Z,4.90
2023-04-09T18:51:14.799Z,4.25
2023-04-09T18:53:42.135Z,4.35
2023-04-09T18:56:09.352Z,4.47
2023-04-09T18:58:36.721Z,5.25
2023-04-09T19:01:12.891Z,5.18
2023-04-09T19:03:40.704Z,4.53
2023-04-09T19:06:12.973Z,4.20
2023-04-09T19:08:39.980Z,4.15
2023-04-09T19:11:07.873Z,4.72
2023-04-09T19:13:34.793Z,4.20
2023-04-09T19:16:02.178Z,4.50
2023-04-09T19:18:29.490Z,4.70
2023-04-09T19:20:56.433Z,4.38
2023-04-09T19:23:23.379Z,4.32
2023-04-09T19:25:55.380Z,4.55
2023-04-09T19:28:22.884Z,4.38
2023-04-09T19:30:53.711Z,3.85
2023-04-09T19:33:22.138Z,3.83
2023-04-09T19:35:49.580Z,3.80
2023-04-09T19:38:17.242Z,4.00
2023-04-09T19:40:44.450Z,4.18
2023-04-09T19:43:11.560Z,4.50
2023-04-09T19:45:39.290Z,4.63
2023-04-09T19:48:07.082Z,4.22
2023-04-09T19:50:38.260Z,4.03
2023-04-09T19:53:06.062Z,4.25
2023-04-09T19:55:35.934Z,4.20
2023-04-09T19:58:03.263Z,4.72
2023-04-09T20:00:30.550Z,4.45
2023-04-09T20:02:57.714Z,4.65
2023-04-09T20:05:25.022Z,4.63
2023-04-09T20:07:52.919Z,4.65
2023-04-09T20:10:20.387Z,4.43
2023-04-09T20:12:48.858Z,5.18
2023-04-09T20:15:17.556Z,4.55
2023-04-09T20:17:44.650Z,4.85
2023-04-09T20:20:12.167Z,5.20
2023-04-09T20:22:43.186Z,4.90
2023-04-09T20:25:11.974Z,5.20
2023-04-09T20:27:38.860Z,5.20
2023-04-09T20:30:07.017Z,5.10
2023-04-09T20:32:35.792Z,5.68
2023-04-09T20:35:02.565Z,5.60
2023-04-09T20:37:29.309Z,5.10
2023-04-09T20:39:56.329Z,5.10
2023-04-09T20:42:23.314Z,4.88
2023-04-09T20:44:49.965Z,5.82
2023-04-09T20:47:16.688Z,5.10
2023-04-09T20:49:43.495Z,5.22
2023-04-09T20:52:10.282Z,5.70
2023-04-09T20:54:37.102Z,5.65
2023-04-09T20:57:05.577Z,5.82
2023-04-09T20:59:32.835Z,5.82
2023-04-09T21:01:59.676Z,5.50
2023-04-09T21:04:26.593Z,5.82
2023-04-09T21:06:53.364Z,4.95
2023-04-09T21:09:20.092Z,5.63
2023-04-09T21:11:46.886Z,5.68
2023-04-09T21:14:14.588Z,6.43
2023-04-09T21:16:41.441Z,5.85
2023-04-09T21:19:08.198Z,6.00
2023-04-09T21:21:35.681Z,5.38
2023-04-09T21:24:03.902Z,5.72
2023-04-09T21:26:44.975Z,5.43
2023-04-09T21:29:15.725Z,5.40
2023-04-09T21:31:42.387Z,5.18
2023-04-09T21:34:09.174Z,4.95
2023-04-09T21:36:39.213Z,4.93
2023-04-09T21:39:06.022Z,5.68
2023-04-09T21:41:32.790Z,5.65
2023-04-09T21:44:05.157Z,5.50
2023-04-09T21:46:31.823Z,5.07
2023-04-09T21:48:58.514Z,6.03
2023-04-09T21:51:25.343Z,4.82
2023-04-09T21:53:52.084Z,5.03
2023-04-09T21:56:18.708Z,5.32
2023-04-09T21:58:45.641Z,4.95
2023-04-09T22:01:22.612Z,5.07
2023-04-09T22:03:55.156Z,5.30
2023-04-09T22:06:21.932Z,5.18
2023-04-09T22:08:55.570Z,5.30
2023-04-09T22:11:28.438Z,5.07
2023-04-09T22:13:57.049Z,5.57
2023-04-09T22:16:24.661Z,5.47
2023-04-09T22:18:52.674Z,4.82
2023-04-09T22:21:19.671Z,5.20
2023-04-09T22:23:46.447Z,5.25
2023-04-09T22:26:13.406Z,5.28
2023-04-09T22:28:40.282Z,5.32
2023-04-09T22:31:07.365Z,5.13
2023-04-09T22:33:34.120Z,5.75
2023-04-09T22:36:00.866Z,5.07
2023-04-09T22:38:27.718Z,5.55
2023-04-09T22:40:54.562Z,6.10
2023-04-09T22:43:21.336Z,5.32
2023-04-09T22:45:52.299Z,5.05
2023-04-09T22:48:20.428Z,4.80
2023-04-09T22:50:48.686Z,5.50
2023-04-09T22:53:19.319Z,4.90
2023-04-09T22:55:51.325Z,4.57
2023-04-09T22:58:18.731Z,4.60
2023-04-09T23:00:46.984Z,5.07
2023-04-09T23:03:14.083Z,4.80
2023-04-09T23:05:41.247Z,4.72
2023-04-09T23:08:07.985Z,4.68
2023-04-09T23:10:35.483Z,4.72
2023-04-09T23:13:02.325Z,4.38
2023-04-09T23:15:29.014Z,4.30
2023-04-09T23:17:56.255Z,4.68
2023-04-09T23:20:23.348Z,4.60
2023-04-09T23:22:50.421Z,4.75
2023-04-09T23:25:17.585Z,4.25
2023-04-09T23:27:44.779Z,4.57
2023-04-09T23:30:16.594Z,4.60
2023-04-09T23:32:46.866Z,4.50
2023-04-09T23:35:13.990Z,4.93
2023-04-09T23:37:42.420Z,4.40
2023-04-09T23:40:10.526Z,4.45
2023-04-09T23:42:37.230Z,5.07
2023-04-09T23:45:05.660Z,4.47
2023-04-09T23:47:34.262Z,4.63
2023-04-09T23:50:04.910Z,3.92
2023-04-09T23:52:37.057Z,3.95
2023-04-09T23:55:05.311Z,4.13
2023-04-09T23:57:32.101Z,4.22
2023-04-09T23:59:58.931Z,4.57
